sensor_id;sensor_type;location;lat;lon;timestamp;P1;durP1;ratioP1;P2;durP2;ratioP2
63298;SDS011;54535;52.138;5.398;2022-07-29T00:02:25;4.00;;;1.52;;
63298;SDS011;54535;52.138;5.398;2022-07-29T00:04:53;2.63;;;1.40;;
63298;SDS011;54535;52.138;5.398;2022-07-29T00:07:20;2.50;;;1.42;;
63298;SDS011;54535;52.138;5.398;2022-07-29T00:09:47;4.13;;;1.80;;
63298;SDS011;54535;52.138;5.398;2022-07-29T00:12:21;6.07;;;1.40;;
63298;SDS011;54535;52.138;5.398;2022-07-29T00:14:53;3.10;;;1.60;;
63298;SDS011;54535;52.138;5.398;2022-07-29T00:17:20;5.38;;;1.50;;
63298;SDS011;54535;52.138;5.398;2022-07-29T00:19:47;7.32;;;1.58;;
63298;SDS011;54535;52.138;5.398;2022-07-29T00:22:14;2.45;;;1.40;;
63298;SDS011;54535;52.138;5.398;2022-07-29T00:24:41;4.03;;;1.40;;
63298;SDS011;54535;52.138;5.398;2022-07-29T00:27:08;3.73;;;1.63;;
63298;SDS011;54535;52.138;5.398;2022-07-29T00:29:35;4.40;;;1.80;;
63298;SDS011;54535;52.138;5.398;2022-07-29T00:32:02;6.70;;;1.50;;
63298;SDS011;54535;52.138;5.398;2022-07-29T00:34:29;5.70;;;1.75;;
63298;SDS011;54535;52.138;5.398;2022-07-29T00:37:15;3.60;;;1.53;;
63298;SDS011;54535;52.138;5.398;2022-07-29T00:39:42;6.13;;;1.57;;
63298;SDS011;54535;52.138;5.398;2022-07-29T00:42:09;2.07;;;1.17;;
63298;SDS011;54535;52.138;5.398;2022-07-29T00:44:39;3.95;;;1.50;;
63298;SDS011;54535;52.138;5.398;2022-07-29T00:47:08;4.38;;;1.60;;
63298;SDS011;54535;52.138;5.398;2022-07-29T00:49:37;3.13;;;1.30;;
63298;SDS011;54535;52.138;5.398;2022-07-29T00:52:06;4.18;;;1.50;;
63298;SDS011;54535;52.138;5.398;2022-07-29T00:54:34;3.25;;;1.50;;
63298;SDS011;54535;52.138;5.398;2022-07-29T00:57:09;6.47;;;1.83;;
63298;SDS011;54535;52.138;5.398;2022-07-29T00:59:35;5.50;;;1.77;;
63298;SDS011;54535;52.138;5.398;2022-07-29T01:02:02;2.78;;;1.70;;
63298;SDS011;54535;52.138;5.398;2022-07-29T01:04:30;4.75;;;1.65;;
63298;SDS011;54535;52.138;5.398;2022-07-29T01:06:57;4.68;;;1.58;;
63298;SDS011;54535;52.138;5.398;2022-07-29T01:09:26;2.22;;;1.52;;
63298;SDS011;54535;52.138;5.398;2022-07-29T01:12:10;4.50;;;1.77;;
63298;SDS011;54535;52.138;5.398;2022-07-29T01:14:39;4.82;;;1.42;;
63298;SDS011;54535;52.138;5.398;2022-07-29T01:17:10;3.85;;;1.70;;
63298;SDS011;54535;52.138;5.398;2022-07-29T01:31:10;4.18;;;1.50;;
63298;SDS011;54535;52.138;5.398;2022-07-29T01:33:53;4.72;;;1.50;;
63298;SDS011;54535;52.138;5.398;2022-07-29T01:36:29;4.22;;;1.70;;
63298;SDS011;54535;52.138;5.398;2022-07-29T01:39:05;4.18;;;1.50;;
63298;SDS011;54535;52.138;5.398;2022-07-29T01:41:58;1.65;;;1.42;;
63298;SDS011;54535;52.138;5.398;2022-07-29T01:44:33;3.95;;;1.75;;
63298;SDS011;54535;52.138;5.398;2022-07-29T01:47:14;2.05;;;1.40;;
63298;SDS011;54535;52.138;5.398;2022-07-29T01:49:46;5.13;;;1.65;;
63298;SDS011;54535;52.138;5.398;2022-07-29T01:52:21;4.28;;;1.60;;
63298;SDS011;54535;52.138;5.398;2022-07-29T01:54:57;5.20;;;1.75;;
63298;SDS011;54535;52.138;5.398;2022-07-29T01:57:29;4.20;;;1.80;;
63298;SDS011;54535;52.138;5.398;2022-07-29T01:59:58;4.90;;;1.77;;
63298;SDS011;54535;52.138;5.398;2022-07-29T02:02:37;3.45;;;1.77;;
63298;SDS011;54535;52.138;5.398;2022-07-29T02:05:07;3.60;;;1.70;;
63298;SDS011;54535;52.138;5.398;2022-07-29T02:07:38;3.95;;;1.60;;
63298;SDS011;54535;52.138;5.398;2022-07-29T02:10:08;3.80;;;1.85;;
63298;SDS011;54535;52.138;5.398;2022-07-29T02:12:36;2.67;;;1.45;;
63298;SDS011;54535;52.138;5.398;2022-07-29T02:15:05;3.75;;;1.48;;
63298;SDS011;54535;52.138;5.398;2022-07-29T02:17:39;3.72;;;1.80;;
63298;SDS011;54535;52.138;5.398;2022-07-29T02:20:20;4.25;;;1.70;;
63298;SDS011;54535;52.138;5.398;2022-07-29T02:22:49;4.75;;;1.50;;
63298;SDS011;54535;52.138;5.398;2022-07-29T02:25:20;4.32;;;1.75;;
63298;SDS011;54535;52.138;5.398;2022-07-29T02:27:50;5.95;;;2.00;;
63298;SDS011;54535;52.138;5.398;2022-07-29T02:30:18;4.60;;;2.08;;
63298;SDS011;54535;52.138;5.398;2022-07-29T02:32:46;6.32;;;2.05;;
63298;SDS011;54535;52.138;5.398;2022-07-29T02:35:15;3.80;;;1.50;;
63298;SDS011;54535;52.138;5.398;2022-07-29T02:37:43;4.38;;;1.80;;
63298;SDS011;54535;52.138;5.398;2022-07-29T02:40:11;3.85;;;1.80;;
63298;SDS011;54535;52.138;5.398;2022-07-29T02:42:42;4.50;;;1.73;;
63298;SDS011;54535;52.138;5.398;2022-07-29T02:45:10;3.25;;;1.55;;
63298;SDS011;54535;52.138;5.398;2022-07-29T02:47:41;4.45;;;1.95;;
63298;SDS011;54535;52.138;5.398;2022-07-29T02:50:11;8.00;;;1.90;;
63298;SDS011;54535;52.138;5.398;2022-07-29T02:52:42;4.07;;;1.85;;
63298;SDS011;54535;52.138;5.398;2022-07-29T03:00:58;4.85;;;2.00;;
63298;SDS011;54535;52.138;5.398;2022-07-29T03:03:32;3.85;;;1.75;;
63298;SDS011;54535;52.138;5.398;2022-07-29T03:06:03;4.00;;;1.90;;
63298;SDS011;54535;52.138;5.398;2022-07-29T03:08:31;3.72;;;2.10;;
63298;SDS011;54535;52.138;5.398;2022-07-29T03:10:59;2.38;;;1.70;;
63298;SDS011;54535;52.138;5.398;2022-07-29T03:13:27;6.65;;;2.15;;
63298;SDS011;54535;52.138;5.398;2022-07-29T03:15:55;2.28;;;1.70;;
63298;SDS011;54535;52.138;5.398;2022-07-29T03:18:23;2.20;;;1.50;;
63298;SDS011;54535;52.138;5.398;2022-07-29T03:20:51;5.22;;;2.10;;
63298;SDS011;54535;52.138;5.398;2022-07-29T03:23:19;4.95;;;2.30;;
63298;SDS011;54535;52.138;5.398;2022-07-29T03:25:47;3.88;;;1.88;;
63298;SDS011;54535;52.138;5.398;2022-07-29T03:28:14;5.82;;;2.10;;
63298;SDS011;54535;52.138;5.398;2022-07-29T03:30:41;3.33;;;1.80;;
63298;SDS011;54535;52.138;5.398;2022-07-29T03:33:09;6.38;;;2.20;;
63298;SDS011;54535;52.138;5.398;2022-07-29T03:35:39;4.72;;;1.90;;
63298;SDS011;54535;52.138;5.398;2022-07-29T03:38:06;6.40;;;2.10;;
63298;SDS011;54535;52.138;5.398;2022-07-29T03:40:48;3.63;;;2.00;;
63298;SDS011;54535;52.138;5.398;2022-07-29T03:43:18;6.35;;;1.90;;
63298;SDS011;54535;52.138;5.398;2022-07-29T03:45:51;5.53;;;2.30;;
63298;SDS011;54535;52.138;5.398;2022-07-29T03:48:20;4.82;;;1.85;;
63298;SDS011;54535;52.138;5.398;2022-07-29T03:50:49;5.65;;;1.90;;
63298;SDS011;54535;52.138;5.398;2022-07-29T03:53:17;3.90;;;1.80;;
63298;SDS011;54535;52.138;5.398;2022-07-29T03:55:45;4.55;;;2.08;;
63298;SDS011;54535;52.138;5.398;2022-07-29T03:58:14;3.40;;;1.80;;
63298;SDS011;54535;52.138;5.398;2022-07-29T04:00:42;4.70;;;1.92;;
63298;SDS011;54535;52.138;5.398;2022-07-29T04:05:37;7.70;;;2.22;;
63298;SDS011;54535;52.138;5.398;2022-07-29T04:08:03;3.33;;;1.87;;
63298;SDS011;54535;52.138;5.398;2022-07-29T04:10:30;5.88;;;2.10;;
63298;SDS011;54535;52.138;5.398;2022-07-29T04:13:00;3.38;;;2.00;;
63298;SDS011;54535;52.138;5.398;2022-07-29T04:15:27;5.47;;;1.90;;
63298;SDS011;54535;52.138;5.398;2022-07-29T04:17:56;5.68;;;2.35;;
63298;SDS011;54535;52.138;5.398;2022-07-29T04:20:23;8.07;;;2.30;;
63298;SDS011;54535;52.138;5.398;2022-07-29T04:22:50;6.45;;;2.10;;
63298;SDS011;54535;52.138;5.398;2022-07-29T04:25:17;5.13;;;2.33;;
63298;SDS011;54535;52.138;5.398;2022-07-29T04:27:43;4.72;;;2.10;;
63298;SDS011;54535;52.138;5.398;2022-07-29T04:30:29;4.47;;;2.10;;
63298;SDS011;54535;52.138;5.398;2022-07-29T04:32:57;4.22;;;2.08;;
63298;SDS011;54535;52.138;5.398;2022-07-29T04:35:24;4.28;;;2.17;;
63298;SDS011;54535;52.138;5.398;2022-07-29T04:37:50;7.03;;;2.33;;
63298;SDS011;54535;52.138;5.398;2022-07-29T04:40:17;5.40;;;2.42;;
63298;SDS011;54535;52.138;5.398;2022-07-29T04:42:44;4.10;;;2.53;;
63298;SDS011;54535;52.138;5.398;2022-07-29T04:45:13;3.70;;;1.90;;
63298;SDS011;54535;52.138;5.398;2022-07-29T04:47:41;5.45;;;2.42;;
63298;SDS011;54535;52.138;5.398;2022-07-29T04:50:08;5.18;;;2.33;;
63298;SDS011;54535;52.138;5.398;2022-07-29T04:52:36;3.65;;;2.00;;
63298;SDS011;54535;52.138;5.398;2022-07-29T04:55:03;4.93;;;2.38;;
63298;SDS011;54535;52.138;5.398;2022-07-29T04:57:32;6.82;;;2.53;;
63298;SDS011;54535;52.138;5.398;2022-07-29T04:59:59;5.55;;;2.70;;
63298;SDS011;54535;52.138;5.398;2022-07-29T05:02:26;5.97;;;2.80;;
63298;SDS011;54535;52.138;5.398;2022-07-29T05:04:53;4.27;;;2.33;;
63298;SDS011;54535;52.138;5.398;2022-07-29T05:07:19;4.97;;;2.53;;
63298;SDS011;54535;52.138;5.398;2022-07-29T05:09:46;6.28;;;2.30;;
63298;SDS011;54535;52.138;5.398;2022-07-29T05:12:13;4.33;;;2.60;;
63298;SDS011;54535;52.138;5.398;2022-07-29T05:14:40;10.35;;;2.67;;
63298;SDS011;54535;52.138;5.398;2022-07-29T05:17:06;5.05;;;2.40;;
63298;SDS011;54535;52.138;5.398;2022-07-29T05:19:33;5.15;;;2.30;;
63298;SDS011;54535;52.138;5.398;2022-07-29T05:22:04;5.53;;;2.42;;
63298;SDS011;54535;52.138;5.398;2022-07-29T05:24:31;8.97;;;2.67;;
63298;SDS011;54535;52.138;5.398;2022-07-29T05:26:58;4.37;;;2.53;;
63298;SDS011;54535;52.138;5.398;2022-07-29T05:29:25;4.65;;;2.50;;
63298;SDS011;54535;52.138;5.398;2022-07-29T05:32:08;7.13;;;3.35;;
63298;SDS011;54535;52.138;5.398;2022-07-29T05:34:35;4.43;;;2.60;;
63298;SDS011;54535;52.138;5.398;2022-07-29T05:37:15;4.80;;;2.42;;
63298;SDS011;54535;52.138;5.398;2022-07-29T05:39:41;5.75;;;2.40;;
63298;SDS011;54535;52.138;5.398;2022-07-29T05:42:14;8.23;;;4.75;;
63298;SDS011;54535;52.138;5.398;2022-07-29T05:44:41;9.05;;;4.28;;
63298;SDS011;54535;52.138;5.398;2022-07-29T05:47:07;9.97;;;2.90;;
63298;SDS011;54535;52.138;5.398;2022-07-29T05:49:34;9.23;;;5.25;;
63298;SDS011;54535;52.138;5.398;2022-07-29T05:52:01;4.40;;;3.10;;
63298;SDS011;54535;52.138;5.398;2022-07-29T05:54:28;7.68;;;4.18;;
63298;SDS011;54535;52.138;5.398;2022-07-29T05:56:55;4.60;;;2.83;;
63298;SDS011;54535;52.138;5.398;2022-07-29T05:59:22;7.72;;;3.10;;
63298;SDS011;54535;52.138;5.398;2022-07-29T06:01:55;5.43;;;2.78;;
63298;SDS011;54535;52.138;5.398;2022-07-29T06:04:23;5.35;;;2.58;;
63298;SDS011;54535;52.138;5.398;2022-07-29T06:06:50;6.28;;;2.70;;
63298;SDS011;54535;52.138;5.398;2022-07-29T06:09:17;4.37;;;2.73;;
63298;SDS011;54535;52.138;5.398;2022-07-29T06:11:43;4.97;;;2.90;;
63298;SDS011;54535;52.138;5.398;2022-07-29T06:14:10;3.90;;;2.58;;
63298;SDS011;54535;52.138;5.398;2022-07-29T06:16:37;6.13;;;2.72;;
63298;SDS011;54535;52.138;5.398;2022-07-29T06:19:04;4.73;;;2.50;;
63298;SDS011;54535;52.138;5.398;2022-07-29T06:21:31;5.53;;;2.85;;
63298;SDS011;54535;52.138;5.398;2022-07-29T06:23:58;5.28;;;2.53;;
63298;SDS011;54535;52.138;5.398;2022-07-29T06:26:26;6.38;;;2.80;;
63298;SDS011;54535;52.138;5.398;2022-07-29T06:28:56;4.88;;;2.20;;
63298;SDS011;54535;52.138;5.398;2022-07-29T06:31:23;7.43;;;3.20;;
63298;SDS011;54535;52.138;5.398;2022-07-29T06:33:50;6.18;;;2.60;;
63298;SDS011;54535;52.138;5.398;2022-07-29T06:36:19;5.28;;;3.22;;
63298;SDS011;54535;52.138;5.398;2022-07-29T06:38:48;5.90;;;2.70;;
63298;SDS011;54535;52.138;5.398;2022-07-29T06:41:17;2.83;;;2.33;;
63298;SDS011;54535;52.138;5.398;2022-07-29T06:43:44;5.10;;;2.75;;
63298;SDS011;54535;52.138;5.398;2022-07-29T06:46:20;8.60;;;3.80;;
63298;SDS011;54535;52.138;5.398;2022-07-29T06:48:48;4.68;;;2.80;;
63298;SDS011;54535;52.138;5.398;2022-07-29T06:51:15;6.20;;;3.30;;
63298;SDS011;54535;52.138;5.398;2022-07-29T06:53:49;6.45;;;3.20;;
63298;SDS011;54535;52.138;5.398;2022-07-29T06:56:37;7.07;;;2.83;;
63298;SDS011;54535;52.138;5.398;2022-07-29T06:59:06;11.02;;;4.10;;
63298;SDS011;54535;52.138;5.398;2022-07-29T07:01:37;6.80;;;3.33;;
63298;SDS011;54535;52.138;5.398;2022-07-29T07:04:10;7.05;;;3.47;;
63298;SDS011;54535;52.138;5.398;2022-07-29T07:06:37;6.53;;;2.90;;
63298;SDS011;54535;52.138;5.398;2022-07-29T07:09:05;6.35;;;2.92;;
63298;SDS011;54535;52.138;5.398;2022-07-29T07:11:32;5.50;;;2.78;;
63298;SDS011;54535;52.138;5.398;2022-07-29T07:13:59;4.27;;;2.83;;
63298;SDS011;54535;52.138;5.398;2022-07-29T07:16:29;8.70;;;3.30;;
63298;SDS011;54535;52.138;5.398;2022-07-29T07:18:57;7.05;;;3.20;;
63298;SDS011;54535;52.138;5.398;2022-07-29T07:21:24;4.60;;;2.87;;
63298;SDS011;54535;52.138;5.398;2022-07-29T07:23:51;4.93;;;3.00;;
63298;SDS011;54535;52.138;5.398;2022-07-29T07:26:18;5.53;;;3.08;;
63298;SDS011;54535;52.138;5.398;2022-07-29T07:28:45;7.20;;;3.20;;
63298;SDS011;54535;52.138;5.398;2022-07-29T07:31:12;7.68;;;3.13;;
63298;SDS011;54535;52.138;5.398;2022-07-29T07:33:40;6.40;;;3.33;;
63298;SDS011;54535;52.138;5.398;2022-07-29T07:36:07;6.38;;;2.72;;
63298;SDS011;54535;52.138;5.398;2022-07-29T07:38:35;7.00;;;2.78;;
63298;SDS011;54535;52.138;5.398;2022-07-29T07:41:02;6.53;;;3.00;;
63298;SDS011;54535;52.138;5.398;2022-07-29T07:43:29;6.53;;;2.75;;
63298;SDS011;54535;52.138;5.398;2022-07-29T07:48:24;3.50;;;2.50;;
63298;SDS011;54535;52.138;5.398;2022-07-29T07:50:51;7.95;;;2.90;;
63298;SDS011;54535;52.138;5.398;2022-07-29T07:53:18;7.75;;;3.10;;
63298;SDS011;54535;52.138;5.398;2022-07-29T07:55:45;7.50;;;4.53;;
63298;SDS011;54535;52.138;5.398;2022-07-29T07:58:32;5.00;;;2.80;;
63298;SDS011;54535;52.138;5.398;2022-07-29T08:01:01;7.18;;;3.33;;
63298;SDS011;54535;52.138;5.398;2022-07-29T08:03:28;6.28;;;2.85;;
63298;SDS011;54535;52.138;5.398;2022-07-29T08:05:57;4.63;;;3.05;;
63298;SDS011;54535;52.138;5.398;2022-07-29T08:08:24;4.90;;;2.72;;
63298;SDS011;54535;52.138;5.398;2022-07-29T08:10:51;5.10;;;2.65;;
63298;SDS011;54535;52.138;5.398;2022-07-29T08:13:19;7.53;;;3.20;;
63298;SDS011;54535;52.138;5.398;2022-07-29T08:15:48;6.22;;;3.30;;
63298;SDS011;54535;52.138;5.398;2022-07-29T08:18:24;5.38;;;3.10;;
63298;SDS011;54535;52.138;5.398;2022-07-29T08:20:52;5.95;;;3.53;;
63298;SDS011;54535;52.138;5.398;2022-07-29T08:23:20;7.18;;;4.25;;
63298;SDS011;54535;52.138;5.398;2022-07-29T08:25:47;6.38;;;3.50;;
63298;SDS011;54535;52.138;5.398;2022-07-29T08:28:16;5.75;;;3.05;;
63298;SDS011;54535;52.138;5.398;2022-07-29T08:30:43;6.63;;;3.20;;
63298;SDS011;54535;52.138;5.398;2022-07-29T08:33:11;5.30;;;2.88;;
63298;SDS011;54535;52.138;5.398;2022-07-29T08:35:38;5.45;;;3.17;;
63298;SDS011;54535;52.138;5.398;2022-07-29T08:38:05;6.35;;;2.90;;
63298;SDS011;54535;52.138;5.398;2022-07-29T08:40:33;4.63;;;2.88;;
63298;SDS011;54535;52.138;5.398;2022-07-29T08:43:06;9.00;;;3.47;;
63298;SDS011;54535;52.138;5.398;2022-07-29T08:45:41;5.78;;;3.22;;
63298;SDS011;54535;52.138;5.398;2022-07-29T08:48:14;4.38;;;3.13;;
63298;SDS011;54535;52.138;5.398;2022-07-29T08:50:43;7.10;;;3.20;;
63298;SDS011;54535;52.138;5.398;2022-07-29T08:53:16;7.80;;;3.25;;
63298;SDS011;54535;52.138;5.398;2022-07-29T08:55:45;7.32;;;3.13;;
63298;SDS011;54535;52.138;5.398;2022-07-29T08:58:14;7.55;;;3.25;;
63298;SDS011;54535;52.138;5.398;2022-07-29T09:00:43;8.45;;;3.13;;
63298;SDS011;54535;52.138;5.398;2022-07-29T09:03:20;6.88;;;3.03;;
63298;SDS011;54535;52.138;5.398;2022-07-29T09:05:49;5.15;;;3.40;;
63298;SDS011;54535;52.138;5.398;2022-07-29T09:08:17;7.28;;;2.85;;
63298;SDS011;54535;52.138;5.398;2022-07-29T09:10:46;4.65;;;2.70;;
63298;SDS011;54535;52.138;5.398;2022-07-29T09:13:14;8.23;;;3.58;;
63298;SDS011;54535;52.138;5.398;2022-07-29T09:15:41;5.93;;;3.20;;
63298;SDS011;54535;52.138;5.398;2022-07-29T09:18:08;6.55;;;3.35;;
63298;SDS011;54535;52.138;5.398;2022-07-29T09:20:55;6.78;;;3.38;;
63298;SDS011;54535;52.138;5.398;2022-07-29T09:23:41;9.45;;;2.50;;
63298;SDS011;54535;52.138;5.398;2022-07-29T09:27:00;5.07;;;2.90;;
63298;SDS011;54535;52.138;5.398;2022-07-29T09:29:22;8.13;;;2.80;;
63298;SDS011;54535;52.138;5.398;2022-07-29T09:31:50;3.78;;;2.50;;
63298;SDS011;54535;52.138;5.398;2022-07-29T09:34:23;5.95;;;2.85;;
63298;SDS011;54535;52.138;5.398;2022-07-29T09:36:52;8.20;;;3.40;;
63298;SDS011;54535;52.138;5.398;2022-07-29T09:39:28;5.78;;;2.70;;
63298;SDS011;54535;52.138;5.398;2022-07-29T09:42:03;7.80;;;3.15;;
63298;SDS011;54535;52.138;5.398;2022-07-29T09:44:41;5.97;;;3.20;;
63298;SDS011;54535;52.138;5.398;2022-07-29T09:47:16;6.05;;;2.97;;
63298;SDS011;54535;52.138;5.398;2022-07-29T09:52:18;8.50;;;3.10;;
63298;SDS011;54535;52.138;5.398;2022-07-29T09:57:22;7.63;;;2.67;;
63298;SDS011;54535;52.138;5.398;2022-07-29T09:59:56;5.63;;;3.10;;
63298;SDS011;54535;52.138;5.398;2022-07-29T10:02:27;6.68;;;2.80;;
63298;SDS011;54535;52.138;5.398;2022-07-29T10:04:56;5.72;;;3.20;;
63298;SDS011;54535;52.138;5.398;2022-07-29T10:09:55;5.55;;;2.80;;
63298;SDS011;54535;52.138;5.398;2022-07-29T10:12:23;6.18;;;2.90;;
63298;SDS011;54535;52.138;5.398;2022-07-29T10:14:51;8.80;;;3.00;;
63298;SDS011;54535;52.138;5.398;2022-07-29T10:17:19;6.68;;;3.05;;
63298;SDS011;54535;52.138;5.398;2022-07-29T10:19:46;6.75;;;3.10;;
63298;SDS011;54535;52.138;5.398;2022-07-29T10:22:15;6.15;;;3.70;;
63298;SDS011;54535;52.138;5.398;2022-07-29T10:27:29;6.72;;;3.97;;
63298;SDS011;54535;52.138;5.398;2022-07-29T10:29:58;9.48;;;4.38;;
63298;SDS011;54535;52.138;5.398;2022-07-29T10:32:30;8.80;;;4.60;;
63298;SDS011;54535;52.138;5.398;2022-07-29T10:38:31;9.18;;;4.60;;
63298;SDS011;54535;52.138;5.398;2022-07-29T10:41:21;10.73;;;5.00;;
63298;SDS011;54535;52.138;5.398;2022-07-29T10:44:12;9.00;;;4.40;;
63298;SDS011;54535;52.138;5.398;2022-07-29T10:46:45;5.82;;;4.38;;
63298;SDS011;54535;52.138;5.398;2022-07-29T10:54:18;6.43;;;3.20;;
63298;SDS011;54535;52.138;5.398;2022-07-29T10:57:24;8.15;;;5.22;;
63298;SDS011;54535;52.138;5.398;2022-07-29T11:02:43;7.60;;;4.40;;
63298;SDS011;54535;52.138;5.398;2022-07-29T11:05:13;7.70;;;3.55;;
63298;SDS011;54535;52.138;5.398;2022-07-29T11:10:46;7.47;;;4.43;;
63298;SDS011;54535;52.138;5.398;2022-07-29T11:16:16;9.23;;;4.88;;
63298;SDS011;54535;52.138;5.398;2022-07-29T11:19:32;12.60;;;4.38;;
63298;SDS011;54535;52.138;5.398;2022-07-29T11:21:39;5.78;;;3.33;;
63298;SDS011;54535;52.138;5.398;2022-07-29T11:27:13;7.60;;;3.88;;
63298;SDS011;54535;52.138;5.398;2022-07-29T11:29:52;9.05;;;4.28;;
63298;SDS011;54535;52.138;5.398;2022-07-29T11:32:21;6.47;;;3.55;;
63298;SDS011;54535;52.138;5.398;2022-07-29T11:34:50;11.85;;;4.80;;
63298;SDS011;54535;52.138;5.398;2022-07-29T11:37:43;10.90;;;4.45;;
63298;SDS011;54535;52.138;5.398;2022-07-29T11:40:32;6.45;;;3.83;;
63298;SDS011;54535;52.138;5.398;2022-07-29T11:42:59;10.48;;;4.10;;
63298;SDS011;54535;52.138;5.398;2022-07-29T11:45:26;7.85;;;3.42;;
63298;SDS011;54535;52.138;5.398;2022-07-29T11:48:17;10.32;;;4.90;;
63298;SDS011;54535;52.138;5.398;2022-07-29T11:50:55;9.88;;;3.70;;
63298;SDS011;54535;52.138;5.398;2022-07-29T11:53:23;9.57;;;3.45;;
63298;SDS011;54535;52.138;5.398;2022-07-29T11:55:53;7.38;;;2.85;;
63298;SDS011;54535;52.138;5.398;2022-07-29T11:58:23;8.15;;;3.70;;
63298;SDS011;54535;52.138;5.398;2022-07-29T12:00:51;5.45;;;2.47;;
63298;SDS011;54535;52.138;5.398;2022-07-29T12:03:25;6.18;;;2.47;;
63298;SDS011;54535;52.138;5.398;2022-07-29T12:06:02;8.10;;;3.20;;
63298;SDS011;54535;52.138;5.398;2022-07-29T12:08:42;6.65;;;2.53;;
63298;SDS011;54535;52.138;5.398;2022-07-29T12:11:19;6.28;;;3.38;;
63298;SDS011;54535;52.138;5.398;2022-07-29T12:13:48;8.00;;;3.85;;
63298;SDS011;54535;52.138;5.398;2022-07-29T12:16:19;6.78;;;2.97;;
63298;SDS011;54535;52.138;5.398;2022-07-29T12:19:01;6.68;;;3.53;;
63298;SDS011;54535;52.138;5.398;2022-07-29T12:21:29;7.57;;;2.70;;
63298;SDS011;54535;52.138;5.398;2022-07-29T12:24:24;7.43;;;3.50;;
63298;SDS011;54535;52.138;5.398;2022-07-29T12:26:53;9.52;;;3.30;;
63298;SDS011;54535;52.138;5.398;2022-07-29T12:29:22;6.18;;;3.15;;
63298;SDS011;54535;52.138;5.398;2022-07-29T12:32:01;6.75;;;2.90;;
63298;SDS011;54535;52.138;5.398;2022-07-29T12:34:30;5.30;;;3.47;;
63298;SDS011;54535;52.138;5.398;2022-07-29T12:36:57;8.13;;;2.55;;
63298;SDS011;54535;52.138;5.398;2022-07-29T12:39:24;9.00;;;2.78;;
63298;SDS011;54535;52.138;5.398;2022-07-29T12:41:53;6.72;;;2.42;;
63298;SDS011;54535;52.138;5.398;2022-07-29T12:44:49;8.30;;;3.30;;
63298;SDS011;54535;52.138;5.398;2022-07-29T12:47:17;8.52;;;3.83;;
63298;SDS011;54535;52.138;5.398;2022-07-29T12:49:47;8.05;;;3.15;;
63298;SDS011;54535;52.138;5.398;2022-07-29T12:52:31;4.32;;;2.40;;
63298;SDS011;54535;52.138;5.398;2022-07-29T12:54:59;5.70;;;2.20;;
63298;SDS011;54535;52.138;5.398;2022-07-29T12:57:27;4.10;;;2.35;;
63298;SDS011;54535;52.138;5.398;2022-07-29T13:00:02;7.60;;;2.45;;
63298;SDS011;54535;52.138;5.398;2022-07-29T13:05:01;9.40;;;3.25;;
63298;SDS011;54535;52.138;5.398;2022-07-29T13:10:17;7.80;;;2.70;;
63298;SDS011;54535;52.138;5.398;2022-07-29T13:15:34;8.27;;;3.85;;
63298;SDS011;54535;52.138;5.398;2022-07-29T13:18:02;9.85;;;3.60;;
63298;SDS011;54535;52.138;5.398;2022-07-29T13:20:30;6.28;;;2.85;;
63298;SDS011;54535;52.138;5.398;2022-07-29T13:22:58;5.95;;;2.85;;
63298;SDS011;54535;52.138;5.398;2022-07-29T13:25:27;3.47;;;2.30;;
63298;SDS011;54535;52.138;5.398;2022-07-29T13:27:56;6.15;;;2.45;;
63298;SDS011;54535;52.138;5.398;2022-07-29T13:30:23;4.70;;;2.20;;
63298;SDS011;54535;52.138;5.398;2022-07-29T13:32:51;9.02;;;2.60;;
63298;SDS011;54535;52.138;5.398;2022-07-29T13:35:19;5.88;;;2.75;;
63298;SDS011;54535;52.138;5.398;2022-07-29T13:37:46;6.38;;;3.10;;
63298;SDS011;54535;52.138;5.398;2022-07-29T13:42:40;7.68;;;3.10;;
63298;SDS011;54535;52.138;5.398;2022-07-29T13:45:08;5.63;;;3.35;;
63298;SDS011;54535;52.138;5.398;2022-07-29T13:47:37;10.20;;;4.43;;
63298;SDS011;54535;52.138;5.398;2022-07-29T13:50:04;6.88;;;3.60;;
63298;SDS011;54535;52.138;5.398;2022-07-29T13:52:33;8.10;;;3.42;;
63298;SDS011;54535;52.138;5.398;2022-07-29T13:57:28;5.20;;;2.55;;
63298;SDS011;54535;52.138;5.398;2022-07-29T13:59:55;6.97;;;4.00;;
63298;SDS011;54535;52.138;5.398;2022-07-29T14:02:23;8.43;;;3.38;;
63298;SDS011;54535;52.138;5.398;2022-07-29T14:04:51;7.18;;;3.78;;
63298;SDS011;54535;52.138;5.398;2022-07-29T14:07:19;5.13;;;3.38;;
63298;SDS011;54535;52.138;5.398;2022-07-29T14:09:47;6.25;;;4.10;;
63298;SDS011;54535;52.138;5.398;2022-07-29T14:12:13;7.57;;;3.40;;
63298;SDS011;54535;52.138;5.398;2022-07-29T14:14:40;8.68;;;3.78;;
63298;SDS011;54535;52.138;5.398;2022-07-29T14:17:08;7.35;;;2.85;;
63298;SDS011;54535;52.138;5.398;2022-07-29T14:19:35;5.55;;;2.55;;
63298;SDS011;54535;52.138;5.398;2022-07-29T14:22:04;6.80;;;3.25;;
63298;SDS011;54535;52.138;5.398;2022-07-29T14:24:32;4.93;;;2.60;;
63298;SDS011;54535;52.138;5.398;2022-07-29T14:27:02;7.75;;;4.03;;
63298;SDS011;54535;52.138;5.398;2022-07-29T14:29:34;9.27;;;3.10;;
63298;SDS011;54535;52.138;5.398;2022-07-29T14:32:04;7.63;;;3.03;;
63298;SDS011;54535;52.138;5.398;2022-07-29T14:34:33;6.53;;;3.35;;
63298;SDS011;54535;52.138;5.398;2022-07-29T14:37:04;7.32;;;3.20;;
63298;SDS011;54535;52.138;5.398;2022-07-29T14:39:32;7.07;;;3.45;;
63298;SDS011;54535;52.138;5.398;2022-07-29T14:42:04;6.50;;;2.83;;
63298;SDS011;54535;52.138;5.398;2022-07-29T14:46:58;7.03;;;2.90;;
63298;SDS011;54535;52.138;5.398;2022-07-29T14:49:26;7.78;;;3.40;;
63298;SDS011;54535;52.138;5.398;2022-07-29T14:51:53;6.80;;;3.58;;
63298;SDS011;54535;52.138;5.398;2022-07-29T14:54:20;7.07;;;3.20;;
63298;SDS011;54535;52.138;5.398;2022-07-29T14:56:47;7.07;;;2.80;;
63298;SDS011;54535;52.138;5.398;2022-07-29T14:59:16;12.80;;;3.20;;
63298;SDS011;54535;52.138;5.398;2022-07-29T15:01:43;8.32;;;3.10;;
63298;SDS011;54535;52.138;5.398;2022-07-29T15:04:10;5.43;;;3.03;;
63298;SDS011;54535;52.138;5.398;2022-07-29T15:06:37;5.75;;;2.72;;
63298;SDS011;54535;52.138;5.398;2022-07-29T15:09:04;7.00;;;2.70;;
63298;SDS011;54535;52.138;5.398;2022-07-29T15:11:31;5.55;;;3.25;;
63298;SDS011;54535;52.138;5.398;2022-07-29T15:14:03;5.68;;;2.50;;
63298;SDS011;54535;52.138;5.398;2022-07-29T15:16:30;10.65;;;5.05;;
63298;SDS011;54535;52.138;5.398;2022-07-29T15:18:57;5.78;;;3.17;;
63298;SDS011;54535;52.138;5.398;2022-07-29T15:21:28;9.68;;;4.32;;
63298;SDS011;54535;52.138;5.398;2022-07-29T15:26:22;6.90;;;3.10;;
63298;SDS011;54535;52.138;5.398;2022-07-29T15:31:15;8.20;;;2.90;;
63298;SDS011;54535;52.138;5.398;2022-07-29T15:33:42;6.53;;;2.58;;
63298;SDS011;54535;52.138;5.398;2022-07-29T15:36:09;7.35;;;2.70;;
63298;SDS011;54535;52.138;5.398;2022-07-29T15:38:58;5.20;;;2.50;;
63298;SDS011;54535;52.138;5.398;2022-07-29T15:41:24;6.50;;;2.47;;
63298;SDS011;54535;52.138;5.398;2022-07-29T15:43:51;4.38;;;2.15;;
63298;SDS011;54535;52.138;5.398;2022-07-29T15:46:19;7.75;;;2.75;;
63298;SDS011;54535;52.138;5.398;2022-07-29T15:49:05;8.57;;;2.53;;
63298;SDS011;54535;52.138;5.398;2022-07-29T15:51:33;4.78;;;2.45;;
63298;SDS011;54535;52.138;5.398;2022-07-29T15:54:00;5.97;;;2.60;;
63298;SDS011;54535;52.138;5.398;2022-07-29T15:56:28;4.95;;;2.72;;
63298;SDS011;54535;52.138;5.398;2022-07-29T15:58:55;8.15;;;2.53;;
63298;SDS011;54535;52.138;5.398;2022-07-29T16:01:23;5.00;;;2.40;;
63298;SDS011;54535;52.138;5.398;2022-07-29T16:03:50;5.68;;;2.40;;
63298;SDS011;54535;52.138;5.398;2022-07-29T16:06:17;5.60;;;3.08;;
63298;SDS011;54535;52.138;5.398;2022-07-29T16:08:44;4.85;;;2.28;;
63298;SDS011;54535;52.138;5.398;2022-07-29T16:11:11;4.13;;;2.00;;
63298;SDS011;54535;52.138;5.398;2022-07-29T16:13:37;4.05;;;2.20;;
63298;SDS011;54535;52.138;5.398;2022-07-29T16:16:06;3.40;;;2.20;;
63298;SDS011;54535;52.138;5.398;2022-07-29T16:18:34;4.78;;;2.38;;
63298;SDS011;54535;52.138;5.398;2022-07-29T16:21:00;4.57;;;2.20;;